sensor_id;sensor_type;location;lat;lon;timestamp;P1;durP1;ratioP1;P2;durP2;ratioP2
43803;SDS011;29430;52.924;-2.388;2023-04-01T00:01:58;5.05;;;2.55;;
43803;SDS011;29430;52.924;-2.388;2023-04-01T00:06:50;5.72;;;2.40;;
43803;SDS011;29430;52.924;-2.388;2023-04-01T00:11:43;4.93;;;2.42;;
43803;SDS011;29430;52.924;-2.388;2023-04-01T00:16:36;5.22;;;3.10;;
43803;SDS011;29430;52.924;-2.388;2023-04-01T00:21:28;5.55;;;3.10;;
43803;SDS011;29430;52.924;-2.388;2023-04-01T00:26:20;4.43;;;3.08;;
43803;SDS011;29430;52.924;-2.388;2023-04-01T00:31:13;4.72;;;2.67;;
43803;SDS011;29430;52.924;-2.388;2023-04-01T00:36:06;3.83;;;2.30;;
43803;SDS011;29430;52.924;-2.388;2023-04-01T00:40:59;5.20;;;2.25;;
43803;SDS011;29430;52.924;-2.388;2023-04-01T00:45:51;5.53;;;1.90;;
43803;SDS011;29430;52.924;-2.388;2023-04-01T00:50:44;6.28;;;2.15;;
43803;SDS011;29430;52.924;-2.388;2023-04-01T00:55:41;4.30;;;2.17;;
43803;SDS011;29430;52.924;-2.388;2023-04-01T01:00:40;4.38;;;1.52;;
43803;SDS011;29430;52.924;-2.388;2023-04-01T01:05:37;4.53;;;2.10;;
43803;SDS011;29430;52.924;-2.388;2023-04-01T01:10:41;4.32;;;1.52;;
43803;SDS011;29430;52.924;-2.388;2023-04-01T01:15:45;5.67;;;1.27;;
43803;SDS011;29430;52.924;-2.388;2023-04-01T01:36:07;2.38;;;0.80;;
43803;SDS011;29430;52.924;-2.388;2023-04-01T01:41:05;4.13;;;0.93;;
43803;SDS011;29430;52.924;-2.388;2023-04-01T01:46:00;4.07;;;1.75;;
43803;SDS011;29430;52.924;-2.388;2023-04-01T01:50:56;2.97;;;0.90;;
43803;SDS011;29430;52.924;-2.388;2023-04-01T01:55:48;2.65;;;1.02;;
43803;SDS011;29430;52.924;-2.388;2023-04-01T02:00:41;2.58;;;0.90;;
43803;SDS011;29430;52.924;-2.388;2023-04-01T02:05:36;1.92;;;0.70;;
43803;SDS011;29430;52.924;-2.388;2023-04-01T02:10:28;2.17;;;0.70;;
43803;SDS011;29430;52.924;-2.388;2023-04-01T02:15:24;2.67;;;0.70;;
43803;SDS011;29430;52.924;-2.388;2023-04-01T02:20:22;2.83;;;1.02;;
43803;SDS011;29430;52.924;-2.388;2023-04-01T02:25:18;4.55;;;1.50;;
43803;SDS011;29430;52.924;-2.388;2023-04-01T02:30:26;3.35;;;1.27;;
43803;SDS011;29430;52.924;-2.388;2023-04-01T02:35:20;3.00;;;1.13;;
43803;SDS011;29430;52.924;-2.388;2023-04-01T02:40:13;4.60;;;1.30;;
43803;SDS011;29430;52.924;-2.388;2023-04-01T02:45:06;2.40;;;1.00;;
43803;SDS011;29430;52.924;-2.388;2023-04-01T02:49:58;2.55;;;1.17;;
43803;SDS011;29430;52.924;-2.388;2023-04-01T02:54:50;2.70;;;1.20;;
43803;SDS011;29430;52.924;-2.388;2023-04-01T02:59:42;2.38;;;1.00;;
43803;SDS011;29430;52.924;-2.388;2023-04-01T03:04:33;2.42;;;1.02;;
43803;SDS011;29430;52.924;-2.388;2023-04-01T03:09:25;2.40;;;1.00;;
43803;SDS011;29430;52.924;-2.388;2023-04-01T03:14:17;1.70;;;0.80;;
43803;SDS011;29430;52.924;-2.388;2023-04-01T03:19:09;1.80;;;0.80;;
43803;SDS011;29430;52.924;-2.388;2023-04-01T03:24:00;3.45;;;0.60;;
43803;SDS011;29430;52.924;-2.388;2023-04-01T03:28:53;2.20;;;0.57;;
43803;SDS011;29430;52.924;-2.388;2023-04-01T03:33:45;2.42;;;0.75;;
43803;SDS011;29430;52.924;-2.388;2023-04-01T03:38:36;2.78;;;0.60;;
43803;SDS011;29430;52.924;-2.388;2023-04-01T03:43:28;2.40;;;0.60;;
43803;SDS011;29430;52.924;-2.388;2023-04-01T03:48:20;2.10;;;0.50;;
43803;SDS011;29430;52.924;-2.388;2023-04-01T03:53:12;1.00;;;0.30;;
43803;SDS011;29430;52.924;-2.388;2023-04-01T03:58:04;1.58;;;0.50;;
43803;SDS011;29430;52.924;-2.388;2023-04-01T04:02:57;2.85;;;0.50;;
43803;SDS011;29430;52.924;-2.388;2023-04-01T04:07:51;2.05;;;0.65;;
43803;SDS011;29430;52.924;-2.388;2023-04-01T04:12:43;1.58;;;0.50;;
43803;SDS011;29430;52.924;-2.388;2023-04-01T04:17:35;1.38;;;0.50;;
43803;SDS011;29430;52.924;-2.388;2023-04-01T04:22:27;1.10;;;0.50;;
43803;SDS011;29430;52.924;-2.388;2023-04-01T04:27:19;1.27;;;0.47;;
43803;SDS011;29430;52.924;-2.388;2023-04-01T04:32:11;1.13;;;0.43;;
43803;SDS011;29430;52.924;-2.388;2023-04-01T04:37:03;2.08;;;0.50;;
43803;SDS011;29430;52.924;-2.388;2023-04-01T04:41:55;3.53;;;0.60;;
43803;SDS011;29430;52.924;-2.388;2023-04-01T04:46:47;2.20;;;0.80;;
43803;SDS011;29430;52.924;-2.388;2023-04-01T04:51:39;2.60;;;0.93;;
43803;SDS011;29430;52.924;-2.388;2023-04-01T04:56:31;1.65;;;0.80;;
43803;SDS011;29430;52.924;-2.388;2023-04-01T05:01:23;2.47;;;0.85;;
43803;SDS011;29430;52.924;-2.388;2023-04-01T05:06:15;2.00;;;0.80;;
43803;SDS011;29430;52.924;-2.388;2023-04-01T05:11:09;2.22;;;0.77;;
43803;SDS011;29430;52.924;-2.388;2023-04-01T05:16:10;2.30;;;0.90;;
43803;SDS011;29430;52.924;-2.388;2023-04-01T05:21:03;1.70;;;0.60;;
43803;SDS011;29430;52.924;-2.388;2023-04-01T05:25:56;2.65;;;0.77;;
43803;SDS011;29430;52.924;-2.388;2023-04-01T05:30:48;3.22;;;0.90;;
43803;SDS011;29430;52.924;-2.388;2023-04-01T05:35:40;4.05;;;0.80;;
43803;SDS011;29430;52.924;-2.388;2023-04-01T05:40:32;2.50;;;0.82;;
43803;SDS011;29430;52.924;-2.388;2023-04-01T05:45:24;2.78;;;0.80;;
43803;SDS011;29430;52.924;-2.388;2023-04-01T05:50:16;3.28;;;0.80;;
43803;SDS011;29430;52.924;-2.388;2023-04-01T05:55:08;4.85;;;0.80;;
43803;SDS011;29430;52.924;-2.388;2023-04-01T06:00:00;3.28;;;0.63;;
43803;SDS011;29430;52.924;-2.388;2023-04-01T06:04:54;3.03;;;0.93;;
43803;SDS011;29430;52.924;-2.388;2023-04-01T06:10:01;3.13;;;0.80;;
43803;SDS011;29430;52.924;-2.388;2023-04-01T06:25:47;2.85;;;1.10;;
43803;SDS011;29430;52.924;-2.388;2023-04-01T06:30:49;2.00;;;0.70;;
43803;SDS011;29430;52.924;-2.388;2023-04-01T06:40:51;3.95;;;0.70;;
43803;SDS011;29430;52.924;-2.388;2023-04-01T06:51:04;2.70;;;0.55;;
43803;SDS011;29430;52.924;-2.388;2023-04-01T06:56:28;2.45;;;0.60;;
43803;SDS011;29430;52.924;-2.388;2023-04-01T07:01:22;1.40;;;0.30;;
43803;SDS011;29430;52.924;-2.388;2023-04-01T07:11:44;1.35;;;0.40;;
43803;SDS011;29430;52.924;-2.388;2023-04-01T07:27:17;2.00;;;0.65;;
43803;SDS011;29430;52.924;-2.388;2023-04-01T07:32:17;3.38;;;0.50;;
43803;SDS011;29430;52.924;-2.388;2023-04-01T07:37:42;1.65;;;0.40;;
43803;SDS011;29430;52.924;-2.388;2023-04-01T07:53:22;2.38;;;0.50;;
43803;SDS011;29430;52.924;-2.388;2023-04-01T07:58:31;1.58;;;0.70;;
43803;SDS011;29430;52.924;-2.388;2023-04-01T08:03:38;3.60;;;0.50;;
43803;SDS011;29430;52.924;-2.388;2023-04-01T08:23:44;3.90;;;1.25;;
43803;SDS011;29430;52.924;-2.388;2023-04-01T08:29:21;1.80;;;0.68;;
43803;SDS011;29430;52.924;-2.388;2023-04-01T08:34:01;2.65;;;0.55;;
43803;SDS011;29430;52.924;-2.388;2023-04-01T08:38:57;2.78;;;0.60;;
43803;SDS011;29430;52.924;-2.388;2023-04-01T08:44:00;3.85;;;0.63;;
43803;SDS011;29430;52.924;-2.388;2023-04-01T08:53:59;1.70;;;0.50;;
43803;SDS011;29430;52.924;-2.388;2023-04-01T09:19:52;3.03;;;0.60;;
43803;SDS011;29430;52.924;-2.388;2023-04-01T11:50:15;0.47;;;0.10;;
43803;SDS011;29430;52.924;-2.388;2023-04-01T11:55:58;0.50;;;0.10;;
43803;SDS011;29430;52.924;-2.388;2023-04-01T12:06:53;2.35;;;0.25;;
43803;SDS011;29430;52.924;-2.388;2023-04-01T12:27:23;1.85;;;0.10;;
43803;SDS011;29430;52.924;-2.388;2023-04-01T12:32:40;0.70;;;0.10;;
43803;SDS011;29430;52.924;-2.388;2023-04-01T12:37:41;0.93;;;0.10;;
43803;SDS011;29430;52.924;-2.388;2023-04-01T12:42:36;0.90;;;0.10;;
43803;SDS011;29430;52.924;-2.388;2023-04-01T12:53:22;0.75;;;0.10;;
43803;SDS011;29430;52.924;-2.388;2023-04-01T12:58:44;1.58;;;0.10;;
43803;SDS011;29430;52.924;-2.388;2023-04-01T13:08:58;2.10;;;0.20;;
43803;SDS011;29430;52.924;-2.388;2023-04-01T13:20:05;1.30;;;0.10;;
43803;SDS011;29430;52.924;-2.388;2023-04-01T13:24:58;0.20;;;0.10;;
43803;SDS011;29430;52.924;-2.388;2023-04-01T13:46:12;0.30;;;0.10;;
43803;SDS011;29430;52.924;-2.388;2023-04-01T13:51:26;0.40;;;0.10;;
43803;SDS011;29430;52.924;-2.388;2023-04-01T13:56:41;0.33;;;0.10;;
43803;SDS011;29430;52.924;-2.388;2023-04-01T14:06:48;1.33;;;0.30;;
43803;SDS011;29430;52.924;-2.388;2023-04-01T14:11:53;1.33;;;0.17;;
43803;SDS011;29430;52.924;-2.388;2023-04-01T14:17:02;0.77;;;0.10;;
43803;SDS011;29430;52.924;-2.388;2023-04-01T14:22:20;0.50;;;0.10;;
43803;SDS011;29430;52.924;-2.388;2023-04-01T14:32:49;0.52;;;0.00;;
43803;SDS011;29430;52.924;-2.388;2023-04-01T14:53:16;0.88;;;0.10;;
43803;SDS011;29430;52.924;-2.388;2023-04-01T14:58:16;1.85;;;0.10;;
43803;SDS011;29430;52.924;-2.388;2023-04-01T15:03:18;2.35;;;0.20;;
43803;SDS011;29430;52.924;-2.388;2023-04-01T15:14:24;0.93;;;0.10;;
43803;SDS011;29430;52.924;-2.388;2023-04-01T15:24:47;0.43;;;0.10;;
43803;SDS011;29430;52.924;-2.388;2023-04-01T15:30:02;1.58;;;0.10;;
43803;SDS011;29430;52.924;-2.388;2023-04-01T15:40:43;0.90;;;0.10;;
43803;SDS011;29430;52.924;-2.388;2023-04-01T15:50:54;2.17;;;0.20;;
43803;SDS011;29430;52.924;-2.388;2023-04-01T16:01:16;0.22;;;0.10;;
43803;SDS011;29430;52.924;-2.388;2023-04-01T16:06:29;1.58;;;0.10;;
43803;SDS011;29430;52.924;-2.388;2023-04-01T16:26:36;0.35;;;0.10;;
43803;SDS011;29430;52.924;-2.388;2023-04-01T16:46:59;1.23;;;0.10;;
43803;SDS011;29430;52.924;-2.388;2023-04-01T16:52:04;1.13;;;0.20;;
43803;SDS011;29430;52.924;-2.388;2023-04-01T17:02:04;0.70;;;0.10;;
43803;SDS011;29430;52.924;-2.388;2023-04-01T17:07:11;1.30;;;0.17;;
43803;SDS011;29430;52.924;-2.388;2023-04-01T17:17:43;0.75;;;0.20;;
43803;SDS011;29430;52.924;-2.388;2023-04-01T17:28:26;0.45;;;0.17;;
43803;SDS011;29430;52.924;-2.388;2023-04-01T18:10:24;3.28;;;0.20;;
43803;SDS011;29430;52.924;-2.388;2023-04-01T18:25:50;4.13;;;0.30;;
43803;SDS011;29430;52.924;-2.388;2023-04-01T18:30:54;1.52;;;0.20;;
43803;SDS011;29430;52.924;-2.388;2023-04-01T18:41:12;1.45;;;0.30;;
43803;SDS011;29430;52.924;-2.388;2023-04-01T18:46:07;0.73;;;0.30;;
43803;SDS011;29430;52.924;-2.388;2023-04-01T18:51:10;1.45;;;0.32;;
43803;SDS011;29430;52.924;-2.388;2023-04-01T18:56:21;1.83;;;0.50;;
43803;SDS011;29430;52.924;-2.388;2023-04-01T19:01:28;2.03;;;0.30;;
43803;SDS011;29430;52.924;-2.388;2023-04-01T19:06:28;1.17;;;0.30;;
43803;SDS011;29430;52.924;-2.388;2023-04-01T19:21:37;1.58;;;0.40;;
43803;SDS011;29430;52.924;-2.388;2023-04-01T19:31:41;1.50;;;0.40;;
43803;SDS011;29430;52.924;-2.388;2023-04-01T19:41:40;3.30;;;0.60;;
43803;SDS011;29430;52.924;-2.388;2023-04-01T19:46:44;1.05;;;0.40;;
43803;SDS011;29430;52.924;-2.388;2023-04-01T19:56:44;1.50;;;0.32;;
43803;SDS011;29430;52.924;-2.388;2023-04-01T20:01:49;1.92;;;0.43;;
43803;SDS011;29430;52.924;-2.388;2023-04-01T20:06:54;2.20;;;0.45;;
43803;SDS011;29430;52.924;-2.388;2023-04-01T20:17:18;2.17;;;0.50;;
43803;SDS011;29430;52.924;-2.388;2023-04-01T20:22:20;2.17;;;0.50;;
43803;SDS011;29430;52.924;-2.388;2023-04-01T20:27:23;2.85;;;0.60;;
43803;SDS011;29430;52.924;-2.388;2023-04-01T20:58:44;5.72;;;0.77;;
43803;SDS011;29430;52.924;-2.388;2023-04-01T21:29:51;5.18;;;0.85;;
43803;SDS011;29430;52.924;-2.388;2023-04-01T21:40:20;4.28;;;0.95;;
43803;SDS011;29430;52.924;-2.388;2023-04-01T21:50:47;2.33;;;0.55;;
43803;SDS011;29430;52.924;-2.388;2023-04-01T22:06:38;5.20;;;0.88;;
43803;SDS011;29430;52.924;-2.388;2023-04-01T22:11:55;1.90;;;0.50;;
43803;SDS011;29430;52.924;-2.388;2023-04-01T22:27:08;3.15;;;0.90;;
43803;SDS011;29430;52.924;-2.388;2023-04-01T22:32:13;7.03;;;1.05;;
43803;SDS011;29430;52.924;-2.388;2023-04-01T22:37:20;3.80;;;0.80;;
43803;SDS011;29430;52.924;-2.388;2023-04-01T22:42:35;7.80;;;1.33;;
43803;SDS011;29430;52.924;-2.388;2023-04-01T22:52:44;5.30;;;1.10;;
43803;SDS011;29430;52.924;-2.388;2023-04-01T22:57:40;6.07;;;1.30;;
43803;SDS011;29430;52.924;-2.388;2023-04-01T23:02:40;8.52;;;1.08;;
43803;SDS011;29430;52.924;-2.388;2023-04-01T23:12:52;4.72;;;1.10;;
43803;SDS011;29430;52.924;-2.388;2023-04-01T23:23:11;7.40;;;1.33;;
43803;SDS011;29430;52.924;-2.388;2023-04-01T23:33:30;4.63;;;1.03;;
43803;SDS011;29430;52.924;-2.388;2023-04-01T23:38:24;3.58;;;1.25;;
43803;SDS011;29430;52.924;-2.388;2023-04-01T23:43:33;4.10;;;1.20;;
43803;SDS011;29430;52.924;-2.388;2023-04-01T23:53:31;4.18;;;0.80;;
43803;SDS011;29430;52.924;-2.388;2023-04-01T23:58:26;4.57;;;1.00;;
